Pagina principale
METAR-TAF:

METAR-TAF

Aeroporti :

Biserta, Tunisia

latitudine: 37-15N, longitudine: 009-48E, altezza: 5 m

Osservazione

Il bollettino è stato emesso 27 minuti fa, alle 03:00 UTC
Vento 7 kt da sud-ovest
Temperature 9°C
Umidità 87%
Pressione 1027 hPa
Visibilità: 8000 m
Nubi sparse ad un'altezza di 2000 ft

METAR: DTTB 240300Z 23007KT 8000 SCT020 09/07 Q1027

Ora: 04:27 (03:27 UTC)

Previsione

Il bollettino è stato emesso 3 ore e 27 minuti fa, alle 00:00 UTC
Previsione valida dal 24 alle 01 UTC al 24 alle 10 UTC
Vento 5 kt da ovest/sud-ovest
Visibilità 10 km o più
Nubi sparse ad un'altezza di 2000 ft

TAF: DTTB 240000Z 2401/2410 25005KT 9999 SCT020

Osservazioni e previsioni meteorologiche di più di 4000 aeroporti (messaggi METAR e TAF).

Le stazioni disponibili sono rappresentate dai dischi gialli e rossi sulla carta.

Puntare il mouse per vedere il nome della stazione.

Clicca sopra per visualizzare le osservazioni e previsioni meteorologiche.

Per cambiare la mappa : fare clic sui pulsanti verdi con una croce nera per ingrandire, il pulsante verde con un trattino per diminuire, o sulla freccia verde per le mappe adiacenti.


METAR-TAF: